createdAt,value
2017-04-22T00:00:02.564Z,0
2017-04-22T00:05:02.777Z,0
2017-04-22T00:10:02.630Z,0
2017-04-22T00:15:02.548Z,0
2017-04-22T00:20:02.643Z,0
2017-04-22T00:25:03.251Z,0
2017-04-22T00:30:02.966Z,0
2017-04-22T00:35:02.656Z,0
2017-04-22T00:40:03.310Z,0
2017-04-22T00:45:03.020Z,0
2017-04-22T00:50:02.851Z,0
2017-04-22T00:55:02.547Z,0
2017-04-22T01:00:03.236Z,0
2017-04-22T01:05:03.020Z,0
2017-04-22T01:10:02.654Z,0
2017-04-22T01:15:03.397Z,0
2017-04-22T01:20:03.195Z,0
2017-04-22T01:25:02.814Z,0
2017-04-22T01:30:02.541Z,0
2017-04-22T01:35:03.292Z,0
2017-04-22T01:40:03.163Z,0
2017-04-22T01:45:02.886Z,0
2017-04-22T01:50:02.672Z,0
2017-04-22T01:55:03.604Z,0
2017-04-22T02:00:03.259Z,0
2017-04-22T02:05:02.890Z,0
2017-04-22T02:10:02.713Z,0
2017-04-22T02:15:03.315Z,0
2017-04-22T02:20:03.100Z,0
2017-04-22T02:25:02.864Z,0
2017-04-22T02:30:02.586Z,0
2017-04-22T02:35:02.508Z,0
2017-04-22T02:40:03.340Z,0
2017-04-22T02:45:03.139Z,0
2017-04-22T02:50:03.137Z,0
2017-04-22T02:55:02.787Z,0
2017-04-22T03:00:03.366Z,0
2017-04-22T03:05:03.084Z,0
2017-04-22T03:10:02.907Z,0
2017-04-22T03:15:02.542Z,0
2017-04-22T03:20:03.243Z,0
2017-04-22T03:25:02.899Z,0
2017-04-22T03:30:02.498Z,0
2017-04-22T03:35:03.129Z,0
2017-04-22T03:40:02.763Z,0
2017-04-22T03:45:02.602Z,0
2017-04-22T03:50:03.234Z,1
2017-04-22T03:55:03.123Z,3
2017-04-22T04:00:02.945Z,6
2017-04-22T04:05:02.654Z,12
2017-04-22T04:10:03.475Z,19
2017-04-22T04:15:03.111Z,28
2017-04-22T04:20:02.810Z,37
2017-04-22T04:25:02.531Z,57
2017-04-22T04:30:03.369Z,79
2017-04-22T04:35:03.135Z,264
2017-04-22T04:40:02.801Z,328
2017-04-22T04:45:03.510Z,378
2017-04-22T04:50:03.231Z,562
2017-04-22T04:55:02.854Z,686
2017-04-22T05:00:02.605Z,968
2017-04-22T05:05:03.462Z,1000
2017-04-22T05:10:03.142Z,1000
2017-04-22T05:15:02.893Z,912
2017-04-22T05:20:02.616Z,1000
2017-04-22T05:25:03.361Z,1000
2017-04-22T05:30:02.980Z,1000
2017-04-22T05:35:02.607Z,2000
2017-04-22T05:40:03.407Z,2000
2017-04-22T05:45:03.238Z,2000
2017-04-22T05:50:02.965Z,3000
2017-04-22T05:55:02.562Z,3000
2017-04-22T06:00:03.319Z,3000
2017-04-22T06:05:03.155Z,3000
2017-04-22T06:10:02.919Z,3000
2017-04-22T06:15:02.641Z,4000
2017-04-22T06:20:03.356Z,2000
2017-04-22T06:25:02.984Z,3000
2017-04-22T06:30:02.560Z,5000
2017-04-22T06:35:03.245Z,6000
2017-04-22T06:40:03.026Z,8000
2017-04-22T06:45:02.762Z,6000
2017-04-22T06:50:02.548Z,6000
2017-04-22T06:55:03.241Z,6000
2017-04-22T07:00:02.964Z,7000
2017-04-22T07:05:02.828Z,5000
2017-04-22T07:10:02.547Z,8000
2017-04-22T07:15:03.487Z,7000
2017-04-22T07:20:02.507Z,8000
2017-04-22T07:25:03.091Z,5000
2017-04-22T07:30:02.792Z,5000
2017-04-22T07:35:02.584Z,4000
2017-04-22T07:40:03.291Z,7000
2017-04-22T07:45:02.867Z,9000
2017-04-22T07:50:02.522Z,7000
2017-04-22T07:55:03.490Z,10000
2017-04-22T08:00:03.223Z,10000
2017-04-22T08:05:02.927Z,8000
2017-04-22T08:10:02.572Z,3000
2017-04-22T08:15:03.270Z,3000
2017-04-22T08:20:02.871Z,5000
2017-04-22T08:25:02.592Z,3000
2017-04-22T08:30:03.379Z,9000
2017-04-22T08:35:03.138Z,10000
2017-04-22T08:40:02.949Z,15000
2017-04-22T08:45:02.759Z,16000
2017-04-22T08:50:02.640Z,20000
2017-04-22T08:55:03.294Z,52000
2017-04-22T09:00:02.939Z,61000
2017-04-22T09:05:02.660Z,63000
2017-04-22T09:10:02.528Z,69000
2017-04-22T09:15:03.244Z,32000
2017-04-22T09:20:02.908Z,30000
2017-04-22T09:25:02.814Z,63000
2017-04-22T09:30:02.843Z,58000
2017-04-22T09:35:02.837Z,58000
2017-04-22T09:40:03.001Z,19000
2017-04-22T09:45:02.830Z,68000
2017-04-22T09:50:02.703Z,32000
2017-04-22T09:55:02.664Z,17000
2017-04-22T10:00:02.510Z,25000
2017-04-22T10:05:03.399Z,21000
2017-04-22T10:10:02.487Z,15000
2017-04-22T10:15:02.524Z,13000
2017-04-22T10:20:03.439Z,14000
2017-04-22T10:25:02.558Z,32000
2017-04-22T10:30:02.939Z,23000
2017-04-22T10:35:02.669Z,46000
2017-04-22T10:40:03.217Z,59000
2017-04-22T10:45:03.411Z,17000
2017-04-22T10:50:02.907Z,37000
2017-04-22T10:55:03.487Z,15000
2017-04-22T11:00:03.310Z,59000
2017-04-22T11:05:02.683Z,61000
2017-04-22T11:10:03.003Z,33000
2017-04-22T11:15:03.014Z,46000
2017-04-22T11:20:03.162Z,21000
2017-04-22T11:25:02.795Z,17000
2017-04-22T11:30:02.902Z,17000
2017-04-22T11:35:03.280Z,18000
2017-04-22T11:40:02.816Z,23000
2017-04-22T11:45:02.679Z,28000
2017-04-22T11:50:02.547Z,53000
2017-04-22T11:55:03.354Z,55000
2017-04-22T12:00:03.303Z,55000
2017-04-22T12:05:02.809Z,16000
2017-04-22T12:10:02.741Z,17000
2017-04-22T12:15:03.039Z,16000
2017-04-22T12:20:03.118Z,10000
2017-04-22T12:25:03.073Z,13000
2017-04-22T12:30:03.408Z,10000
2017-04-22T12:35:02.573Z,32000
2017-04-22T12:40:03.265Z,52000
2017-04-22T12:45:03.051Z,59000
2017-04-22T12:50:02.565Z,18000
2017-04-22T12:55:02.749Z,17000
2017-04-22T13:00:02.784Z,7000
2017-04-22T13:05:02.858Z,5000
2017-04-22T13:10:03.433Z,4000
2017-04-22T13:15:03.318Z,4000
2017-04-22T13:20:03.238Z,9000
2017-04-22T13:25:02.626Z,12000
2017-04-22T13:30:03.188Z,10000
2017-04-22T13:35:03.225Z,4000
2017-04-22T13:40:03.273Z,5000
2017-04-22T13:45:02.664Z,12000
2017-04-22T13:50:03.032Z,8000
2017-04-22T13:55:02.925Z,3000
2017-04-22T14:00:03.497Z,3000
2017-04-22T14:05:03.410Z,5000
2017-04-22T14:10:02.955Z,7000
2017-04-22T14:15:03.176Z,7000
2017-04-22T14:20:02.694Z,6000
2017-04-22T14:25:03.124Z,6000
2017-04-22T14:30:02.622Z,11000
2017-04-22T14:35:02.900Z,7000
2017-04-22T14:40:03.310Z,7000
2017-04-22T14:45:02.498Z,10000
2017-04-22T14:50:02.673Z,8000
2017-04-22T14:55:03.042Z,11000
2017-04-22T15:00:03.447Z,11000
2017-04-22T15:05:03.159Z,8000
2017-04-22T15:10:02.606Z,11000
2017-04-22T15:15:02.661Z,18000
2017-04-22T15:20:06.726Z,30000
2017-04-22T15:25:02.709Z,29000
2017-04-22T15:30:02.841Z,23000
2017-04-22T15:35:03.005Z,9000
2017-04-22T15:40:02.962Z,5000
2017-04-22T15:45:03.203Z,6000
2017-04-22T15:50:03.277Z,8000
2017-04-22T15:55:02.733Z,6000
2017-04-22T16:00:02.559Z,5000
2017-04-22T16:05:02.862Z,5000
2017-04-22T16:10:06.987Z,6000
2017-04-22T16:15:03.425Z,6000
2017-04-22T16:20:03.486Z,5000
2017-04-22T16:25:02.417Z,6000
2017-04-22T16:30:04.224Z,22000
2017-04-22T16:35:03.177Z,19000
2017-04-22T16:40:02.983Z,4000
2017-04-22T16:45:02.636Z,3000
2017-04-22T16:50:03.658Z,3000
2017-04-22T16:55:02.912Z,3000
2017-04-22T17:00:02.887Z,3000
2017-04-22T17:05:02.599Z,2000
2017-04-22T17:10:03.336Z,3000
2017-04-22T17:15:02.804Z,2000
2017-04-22T17:20:03.043Z,2000
2017-04-22T17:25:02.880Z,2000
2017-04-22T17:30:06.595Z,1000
2017-04-22T17:35:03.034Z,1000
2017-04-22T17:40:03.357Z,2000
2017-04-22T17:45:03.117Z,6000
2017-04-22T17:50:06.021Z,6000
2017-04-22T17:55:03.385Z,6000
2017-04-22T18:00:02.971Z,1000
2017-04-22T18:05:03.884Z,1000
2017-04-22T18:10:03.537Z,923
2017-04-22T18:15:03.685Z,791
2017-04-22T18:20:03.498Z,714
2017-04-22T18:25:03.014Z,450
2017-04-22T18:30:02.557Z,367
2017-04-22T18:35:03.759Z,265
2017-04-22T18:40:03.009Z,135
2017-04-22T18:45:03.872Z,61
2017-04-22T18:50:03.251Z,50
2017-04-22T18:55:02.925Z,43
2017-04-22T19:00:03.603Z,30
2017-04-22T19:05:02.931Z,18
2017-04-22T19:10:03.458Z,8
2017-04-22T19:15:08.488Z,4
2017-04-22T19:20:04.473Z,2
2017-04-22T19:25:05.339Z,0
2017-04-22T19:30:04.523Z,0
2017-04-22T19:35:03.534Z,0
2017-04-22T19:40:03.397Z,0
2017-04-22T19:45:02.646Z,0
2017-04-22T19:50:03.031Z,0
2017-04-22T19:55:04.434Z,0
2017-04-22T20:00:03.933Z,0
2017-04-22T20:05:02.913Z,0
2017-04-22T20:10:03.490Z,0
2017-04-22T20:15:04.045Z,0
2017-04-22T20:20:04.815Z,0
2017-04-22T20:25:03.773Z,0
2017-04-22T20:30:04.414Z,0
2017-04-22T20:35:03.469Z,0
2017-04-22T20:40:03.834Z,0
2017-04-22T20:45:03.326Z,0
2017-04-22T20:50:04.978Z,0
2017-04-22T20:55:02.646Z,0
2017-04-22T21:00:03.791Z,0
2017-04-22T21:05:02.685Z,0
2017-04-22T21:10:03.500Z,0
2017-04-22T21:15:03.104Z,0
2017-04-22T21:20:02.797Z,0
2017-04-22T21:25:02.533Z,0
2017-04-22T21:30:03.144Z,0
2017-04-22T21:35:02.718Z,0
2017-04-22T21:40:03.452Z,0
2017-04-22T21:45:03.380Z,0
2017-04-22T21:50:03.006Z,0
2017-04-22T21:55:02.622Z,0
2017-04-22T22:00:03.387Z,0
2017-04-22T22:05:03.246Z,0
2017-04-22T22:10:02.895Z,0
2017-04-22T22:15:02.645Z,0
2017-04-22T22:20:03.265Z,0
2017-04-22T22:25:02.824Z,0
2017-04-22T22:30:02.498Z,0
2017-04-22T22:35:03.223Z,0
2017-04-22T22:40:02.893Z,0
2017-04-22T22:45:03.485Z,0
2017-04-22T22:51:06.310Z,0
2017-04-22T22:55:02.968Z,0
2017-04-22T23:00:02.704Z,0
2017-04-22T23:05:03.404Z,0
2017-04-22T23:10:03.023Z,0
2017-04-22T23:15:02.725Z,0
2017-04-22T23:20:02.532Z,0
2017-04-22T23:25:03.067Z,0
2017-04-22T23:30:02.635Z,0
2017-04-22T23:35:03.368Z,0
2017-04-22T23:40:03.142Z,0
2017-04-22T23:45:02.748Z,0
2017-04-22T23:50:03.477Z,0
2017-04-22T23:55:03.066Z,0
